Time;durP1;ratioP1;P1;durP2;ratioP2;P2;SDS_P1;SDS_P2;PMS_P1;PMS_P2;Temp;Humidity;BMP_temperature;BMP_pressure;BME280_temperature;BME280_humidity;BME280_pressure;Samples;Min_cycle;Max_cycle;Signal;HPM_P1;HPM_P2
2021/06/22 00:01:55;;;;;;;3.00;1.50;;;20.60;99.90;;;;;;5111936;28;20208;-70
2021/06/22 00:04:22;;;;;;;1.70;1.30;;;20.60;99.90;;;;;;5112304;27;20200;-68
2021/06/22 00:06:48;;;;;;;3.05;1.75;;;20.60;99.90;;;;;;5124251;27;20184;-68
2021/06/22 00:09:17;;;;;;;2.20;1.42;;;20.60;99.90;;;;;;5132770;27;20211;-68
2021/06/22 00:11:43;;;;;;;2.42;1.50;;;20.60;99.90;;;;;;5121573;27;20288;-68
2021/06/22 00:14:10;;;;;;;2.38;1.30;;;20.60;99.90;;;;;;5127370;27;20593;-68
2021/06/22 00:16:37;;;;;;;1.30;1.20;;;20.60;99.90;;;;;;5121884;27;20224;-68
2021/06/22 00:19:04;;;;;;;1.75;1.00;;;20.50;99.90;;;;;;5132519;28;20192;-69
2021/06/22 00:21:30;;;;;;;2.45;1.83;;;20.50;99.90;;;;;;5117588;28;20199;-68
2021/06/22 00:23:57;;;;;;;2.65;1.45;;;20.50;99.90;;;;;;5112093;28;20201;-68
2021/06/22 00:26:25;;;;;;;4.22;1.23;;;20.50;99.90;;;;;;5119950;28;20636;-68
2021/06/22 00:28:52;;;;;;;2.20;1.20;;;20.40;99.90;;;;;;5117928;28;20193;-68
2021/06/22 00:31:18;;;;;;;3.38;1.52;;;20.40;99.90;;;;;;5112423;28;20251;-69
2021/06/22 00:33:46;;;;;;;4.13;1.90;;;20.40;99.90;;;;;;5111933;28;20363;-68
2021/06/22 00:36:12;;;;;;;4.82;2.20;;;20.40;99.90;;;;;;5112790;28;20557;-68
2021/06/22 00:38:39;;;;;;;2.00;1.60;;;20.40;99.90;;;;;;5111483;28;20207;-68
2021/06/22 00:41:06;;;;;;;1.67;1.50;;;20.40;99.90;;;;;;5117751;28;20231;-69
2021/06/22 00:43:37;;;;;;;4.18;1.48;;;20.40;99.90;;;;;;5112070;28;20206;-69
2021/06/22 00:46:04;;;;;;;2.50;1.42;;;20.30;99.90;;;;;;5118636;28;20227;-68
2021/06/22 00:48:31;;;;;;;3.17;1.90;;;20.30;99.90;;;;;;5131980;28;20532;-68
2021/06/22 00:50:58;;;;;;;4.60;1.50;;;20.30;99.90;;;;;;5132114;28;20211;-69
2021/06/22 00:53:25;;;;;;;2.75;1.63;;;20.30;99.90;;;;;;5132650;28;20624;-68
2021/06/22 00:55:53;;;;;;;1.85;1.50;;;20.30;99.90;;;;;;5124992;28;20224;-69
2021/06/22 00:58:21;;;;;;;4.53;1.73;;;20.30;99.90;;;;;;5111588;28;20229;-68
2021/06/22 01:00:49;;;;;;;1.90;1.15;;;20.30;99.90;;;;;;5112061;28;20203;-68
2021/06/22 01:03:15;;;;;;;2.72;1.20;;;20.30;99.90;;;;;;5121365;28;20207;-69
2021/06/22 01:05:42;;;;;;;2.50;1.50;;;20.20;99.90;;;;;;5120908;28;20207;-68
2021/06/22 01:08:11;;;;;;;2.85;1.40;;;20.20;99.90;;;;;;5131353;28;20212;-68
2021/06/22 01:10:38;;;;;;;2.50;1.50;;;20.30;99.90;;;;;;5111105;28;20197;-69
2021/06/22 01:13:05;;;;;;;4.00;1.63;;;20.20;99.90;;;;;;5128245;27;20416;-69
2021/06/22 01:15:32;;;;;;;1.90;1.30;;;20.20;99.90;;;;;;5120911;27;20236;-68
2021/06/22 01:18:02;;;;;;;2.58;1.58;;;20.20;99.90;;;;;;5114302;28;20200;-68
2021/06/22 01:20:31;;;;;;;5.93;1.58;;;20.20;99.90;;;;;;5115044;28;20201;-68
2021/06/22 01:23:01;;;;;;;3.97;1.52;;;20.20;99.90;;;;;;5114778;28;20204;-68
2021/06/22 01:25:28;;;;;;;3.33;1.48;;;20.20;99.90;;;;;;5116145;27;20196;-68
2021/06/22 01:27:55;;;;;;;2.95;1.60;;;20.20;99.90;;;;;;5116239;27;20201;-68
2021/06/22 01:30:23;;;;;;;1.67;1.27;;;20.10;99.90;;;;;;5135088;27;20192;-69
2021/06/22 01:32:49;;;;;;;4.93;1.63;;;20.20;99.90;;;;;;5118436;27;20201;-68
2021/06/22 01:35:16;;;;;;;1.95;1.75;;;20.10;99.90;;;;;;5118330;27;20226;-68
2021/06/22 01:37:54;;;;;;;4.90;2.17;;;20.10;99.90;;;;;;5135587;27;20196;-68
2021/06/22 01:40:23;;;;;;;2.03;1.60;;;20.10;99.90;;;;;;5122777;27;20202;-68
2021/06/22 01:42:50;;;;;;;4.22;1.70;;;20.10;99.90;;;;;;5135939;27;20528;-68
2021/06/22 01:45:18;;;;;;;2.10;1.65;;;20.10;99.90;;;;;;5126355;27;20201;-68
2021/06/22 01:47:45;;;;;;;1.80;1.50;;;20.10;99.90;;;;;;5126651;27;20196;-68
2021/06/22 01:50:14;;;;;;;3.53;1.50;;;20.10;99.90;;;;;;5133729;27;20203;-70
2021/06/22 01:52:42;;;;;;;2.42;1.30;;;20.10;99.90;;;;;;5130517;27;20695;-68
2021/06/22 01:57:52;;;;;;;1.95;1.60;;;20.10;99.90;;;;;;5124208;27;20223;-70
2021/06/22 02:00:19;;;;;;;3.50;1.92;;;20.00;99.90;;;;;;5134022;27;20192;-70
2021/06/22 02:02:46;;;;;;;2.13;1.92;;;20.00;99.90;;;;;;5118190;27;20592;-70
2021/06/22 02:05:14;;;;;;;1.88;1.65;;;20.00;99.90;;;;;;5123428;27;20192;-70
2021/06/22 02:07:41;;;;;;;3.15;1.48;;;20.00;99.90;;;;;;5125410;27;20252;-70
2021/06/22 02:10:10;;;;;;;2.97;1.73;;;20.00;99.90;;;;;;5134301;27;20215;-70
2021/06/22 02:12:37;;;;;;;3.42;2.20;;;20.00;99.90;;;;;;5134643;27;20211;-70
2021/06/22 02:15:06;;;;;;;4.43;1.85;;;19.90;99.90;;;;;;5125452;27;20211;-70
2021/06/22 02:17:33;;;;;;;2.80;1.65;;;19.90;99.90;;;;;;5114922;27;20213;-70
2021/06/22 02:20:00;;;;;;;1.83;1.30;;;19.90;99.90;;;;;;5123041;27;20197;-70
2021/06/22 02:22:27;;;;;;;1.60;1.30;;;19.90;99.90;;;;;;5117947;27;20188;-70
2021/06/22 02:24:54;;;;;;;3.10;1.48;;;19.90;99.90;;;;;;5128607;27;20207;-70
2021/06/22 02:27:24;;;;;;;3.00;1.30;;;19.90;99.90;;;;;;5113709;27;20193;-70
2021/06/22 02:29:51;;;;;;;3.05;1.60;;;19.90;99.90;;;;;;5113223;28;20278;-69
2021/06/22 02:32:19;;;;;;;2.75;1.45;;;19.90;99.90;;;;;;5113741;28;20205;-70
2021/06/22 02:34:46;;;;;;;3.95;1.85;;;19.90;99.90;;;;;;5114726;27;20196;-70
2021/06/22 02:37:12;;;;;;;2.33;2.13;;;19.90;99.90;;;;;;5118130;27;20235;-70
2021/06/22 02:39:39;;;;;;;2.53;2.05;;;19.90;99.90;;;;;;5114283;27;20228;-70
2021/06/22 02:42:07;;;;;;;3.25;1.90;;;19.80;99.90;;;;;;5132683;27;20211;-70
2021/06/22 02:44:34;;;;;;;2.05;1.85;;;19.80;99.90;;;;;;5133984;27;20200;-70
2021/06/22 02:47:00;;;;;;;1.77;1.67;;;19.80;99.90;;;;;;5133066;27;20197;-69
2021/06/22 02:49:28;;;;;;;4.63;2.45;;;19.80;99.90;;;;;;5134687;27;20200;-70
2021/06/22 02:51:55;;;;;;;3.35;1.80;;;19.80;99.90;;;;;;5132448;27;20708;-69
2021/06/22 02:54:22;;;;;;;2.00;1.63;;;19.80;99.90;;;;;;5117582;27;20188;-69
2021/06/22 02:56:49;;;;;;;4.03;2.28;;;19.80;99.90;;;;;;5121264;27;20211;-69
2021/06/22 02:59:16;;;;;;;3.78;1.95;;;19.80;99.90;;;;;;5133749;27;20196;-69
2021/06/22 03:01:43;;;;;;;2.00;1.70;;;19.80;99.90;;;;;;5118130;27;20220;-69
2021/06/22 03:04:09;;;;;;;5.50;1.88;;;19.80;99.90;;;;;;5130886;27;20195;-69
2021/06/22 03:06:38;;;;;;;2.33;1.70;;;19.70;99.90;;;;;;5112662;27;20239;-69
2021/06/22 03:09:05;;;;;;;2.10;1.70;;;19.70;99.90;;;;;;5112400;28;20653;-70
2021/06/22 03:11:32;;;;;;;4.20;2.13;;;19.70;99.90;;;;;;5113877;27;20188;-70
2021/06/22 03:13:59;;;;;;;2.42;1.90;;;19.70;99.90;;;;;;5124802;27;20448;-70
2021/06/22 03:16:25;;;;;;;3.22;2.05;;;19.70;99.90;;;;;;5112186;27;20228;-70
2021/06/22 03:18:52;;;;;;;1.88;1.75;;;19.70;99.90;;;;;;5112291;28;20201;-70
2021/06/22 03:21:19;;;;;;;4.85;2.08;;;19.70;99.90;;;;;;5112351;28;20709;-70
2021/06/22 03:23:48;;;;;;;4.75;2.22;;;19.70;99.90;;;;;;5112121;28;20668;-70
2021/06/22 03:26:15;;;;;;;2.03;1.83;;;19.70;99.90;;;;;;5116132;27;20189;-70
2021/06/22 03:28:42;;;;;;;2.78;1.80;;;19.70;99.90;;;;;;5132817;27;20192;-70
2021/06/22 03:31:09;;;;;;;4.90;2.30;;;19.70;99.90;;;;;;5127159;27;20200;-69
2021/06/22 03:33:36;;;;;;;2.50;2.00;;;19.70;99.90;;;;;;5116464;27;20275;-68
2021/06/22 03:36:03;;;;;;;1.88;1.52;;;19.70;99.90;;;;;;5132878;27;20212;-68
2021/06/22 03:38:30;;;;;;;2.70;1.65;;;19.70;99.90;;;;;;5118788;27;20208;-69
2021/06/22 03:40:59;;;;;;;2.60;1.80;;;19.60;99.90;;;;;;5132829;27;20192;-68
2021/06/22 03:43:26;;;;;;;4.43;2.00;;;19.60;99.90;;;;;;5132673;27;20215;-69
2021/06/22 03:45:53;;;;;;;5.90;2.42;;;19.60;99.90;;;;;;5129234;27;20199;-69
2021/06/22 03:48:20;;;;;;;2.40;2.08;;;19.60;99.90;;;;;;5112987;28;20247;-69
2021/06/22 03:50:46;;;;;;;4.72;2.17;;;19.60;99.90;;;;;;5126110;27;20543;-68
2021/06/22 03:53:13;;;;;;;3.22;1.75;;;19.70;99.90;;;;;;5131179;27;20200;-69
2021/06/22 03:55:40;;;;;;;3.45;2.03;;;19.60;99.90;;;;;;5123936;27;20193;-69
2021/06/22 03:58:08;;;;;;;3.95;2.35;;;19.60;99.90;;;;;;5111875;28;20216;-68
2021/06/22 04:00:35;;;;;;;2.85;2.17;;;19.60;99.90;;;;;;5112013;28;20216;-69
2021/06/22 04:03:02;;;;;;;3.88;2.25;;;19.60;99.90;;;;;;5112415;28;20207;-69
2021/06/22 04:05:31;;;;;;;5.30;2.30;;;19.60;99.90;;;;;;5112303;28;20243;-68
2021/06/22 04:07:58;;;;;;;4.18;2.95;;;19.50;99.90;;;;;;5111732;28;20208;-69
2021/06/22 04:10:25;;;;;;;6.80;2.40;;;19.60;99.90;;;;;;5112384;28;20249;-68
2021/06/22 04:12:51;;;;;;;3.78;2.00;;;19.60;99.90;;;;;;5118126;27;20189;-68
2021/06/22 04:15:20;;;;;;;5.22;2.33;;;19.60;99.90;;;;;;5111720;28;20193;-68
2021/06/22 04:17:47;;;;;;;3.13;1.58;;;19.60;99.90;;;;;;5111805;28;20221;-68
2021/06/22 04:20:14;;;;;;;3.53;2.28;;;19.60;99.90;;;;;;5111419;28;20196;-69
2021/06/22 04:22:41;;;;;;;4.25;3.47;;;19.60;99.90;;;;;;5111379;28;20192;-68
2021/06/22 04:25:09;;;;;;;6.07;1.92;;;19.50;99.90;;;;;;5112576;28;20537;-68
2021/06/22 04:27:36;;;;;;;5.03;2.58;;;19.50;99.90;;;;;;5112371;28;20200;-68
2021/06/22 04:30:05;;;;;;;4.82;2.63;;;19.50;99.90;;;;;;5111414;28;20192;-68
2021/06/22 04:32:33;;;;;;;9.02;3.10;;;19.60;99.90;;;;;;5115687;28;20529;-67
2021/06/22 04:35:00;;;;;;;6.82;3.00;;;19.50;99.90;;;;;;5128881;28;20612;-68
2021/06/22 04:37:26;;;;;;;2.88;2.65;;;19.50;99.90;;;;;;5111358;28;20231;-68
2021/06/22 04:39:53;;;;;;;4.90;2.45;;;19.50;99.90;;;;;;5111822;28;20200;-68
2021/06/22 04:42:20;;;;;;;3.28;2.63;;;19.50;99.90;;;;;;5131704;28;20287;-68
2021/06/22 04:44:47;;;;;;;3.35;2.88;;;19.50;99.90;;;;;;5129263;28;20764;-68
2021/06/22 04:47:13;;;;;;;3.55;2.20;;;19.50;99.90;;;;;;5131445;28;20192;-68
2021/06/22 04:49:41;;;;;;;4.38;3.17;;;19.40;99.90;;;;;;5135335;27;20513;-68
2021/06/22 04:52:09;;;;;;;3.55;2.20;;;19.50;99.90;;;;;;5123251;27;20209;-68
2021/06/22 04:54:37;;;;;;;5.07;2.30;;;19.50;99.90;;;;;;5126987;27;20540;-67
2021/06/22 04:57:04;;;;;;;5.85;2.42;;;19.50;99.90;;;;;;5135520;27;20211;-68
2021/06/22 04:59:32;;;;;;;4.55;4.05;;;19.40;99.90;;;;;;5116575;27;20220;-68
2021/06/22 05:01:59;;;;;;;3.30;2.58;;;19.40;99.90;;;;;;5116110;27;20192;-68
2021/06/22 05:04:26;;;;;;;4.22;2.60;;;19.40;99.90;;;;;;5128608;27;20306;-68
2021/06/22 05:06:54;;;;;;;4.95;2.40;;;19.40;99.90;;;;;;5115106;28;20196;-68
2021/06/22 05:09:21;;;;;;;4.32;3.22;;;19.40;99.90;;;;;;5114493;27;20208;-68
2021/06/22 05:11:48;;;;;;;3.70;2.53;;;19.40;99.90;;;;;;5114907;28;20209;-67
2021/06/22 05:14:14;;;;;;;3.80;2.20;;;19.40;99.90;;;;;;5115400;27;20208;-67
2021/06/22 05:16:41;;;;;;;3.67;2.83;;;19.40;99.90;;;;;;5114679;27;20240;-67
2021/06/22 05:19:08;;;;;;;4.45;3.35;;;19.40;99.90;;;;;;5114736;28;20196;-67
2021/06/22 05:21:34;;;;;;;7.22;2.97;;;19.30;99.90;;;;;;5118323;27;20192;-69
2021/06/22 05:24:03;;;;;;;3.90;2.13;;;19.30;99.90;;;;;;5124507;27;20204;-69
2021/06/22 05:26:29;;;;;;;4.50;3.00;;;19.40;99.90;;;;;;5114355;27;20204;-69
2021/06/22 05:28:57;;;;;;;2.92;2.45;;;19.40;99.90;;;;;;5130157;27;20622;-69
2021/06/22 05:31:24;;;;;;;5.82;2.40;;;19.40;99.90;;;;;;5121117;27;20549;-69
2021/06/22 05:33:50;;;;;;;2.78;2.58;;;19.40;99.90;;;;;;5119467;27;20188;-69
2021/06/22 05:36:17;;;;;;;3.45;2.13;;;19.40;99.90;;;;;;5124422;27;20204;-69
2021/06/22 05:38:44;;;;;;;3.10;2.80;;;19.40;99.90;;;;;;5113960;28;20196;-70
2021/06/22 05:41:12;;;;;;;4.53;2.95;;;19.30;99.90;;;;;;5126259;27;20287;-69
2021/06/22 05:43:39;;;;;;;4.53;2.95;;;19.50;99.90;;;;;;5131774;27;20203;-70
2021/06/22 05:46:06;;;;;;;3.70;2.85;;;19.50;99.90;;;;;;5135022;27;20192;-69
2021/06/22 05:48:32;;;;;;;6.80;3.95;;;19.50;99.90;;;;;;5135055;27;20207;-70
2021/06/22 05:50:59;;;;;;;4.18;2.63;;;19.40;99.90;;;;;;5123700;27;20207;-70
2021/06/22 05:53:26;;;;;;;5.53;3.42;;;19.40;99.90;;;;;;5115191;27;20192;-70
2021/06/22 05:55:53;;;;;;;4.40;3.33;;;19.40;99.90;;;;;;5130393;27;20200;-70
2021/06/22 05:58:21;;;;;;;3.63;2.63;;;19.40;99.90;;;;;;5114652;27;20286;-69
2021/06/22 06:00:48;;;;;;;4.95;3.30;;;19.40;99.90;;;;;;5113807;28;20200;-69
2021/06/22 06:03:15;;;;;;;3.35;2.75;;;19.40;99.90;;;;;;5114543;27;20197;-69
2021/06/22 06:05:42;;;;;;;3.55;2.63;;;19.40;99.90;;;;;;5124905;27;20200;-69
2021/06/22 06:08:08;;;;;;;5.43;2.97;;;19.40;99.90;;;;;;5114459;28;20355;-69
2021/06/22 06:10:35;;;;;;;3.13;2.83;;;19.40;99.90;;;;;;5115037;27;20207;-72
2021/06/22 06:13:02;;;;;;;5.70;4.10;;;19.40;99.90;;;;;;5124558;27;20199;-72
2021/06/22 06:15:30;;;;;;;3.33;2.80;;;19.40;99.90;;;;;;5116314;27;20200;-72
2021/06/22 06:17:57;;;;;;;11.40;4.10;;;19.40;99.90;;;;;;5114047;28;20224;-72
2021/06/22 06:20:25;;;;;;;5.10;3.55;;;19.40;99.90;;;;;;5114033;27;20193;-72
2021/06/22 06:22:52;;;;;;;6.45;4.03;;;19.40;99.90;;;;;;5115351;27;20193;-72
2021/06/22 06:25:18;;;;;;;6.63;4.32;;;19.40;99.90;;;;;;5119918;27;21015;-73
2021/06/22 06:27:51;;;;;;;5.10;3.50;;;19.50;99.90;;;;;;5132047;27;20185;-72
2021/06/22 06:30:22;;;;;;;5.10;3.65;;;19.70;99.90;;;;;;5116025;27;20254;-72
2021/06/22 06:32:51;;;;;;;10.85;3.83;;;19.60;99.90;;;;;;5114052;27;20196;-72
2021/06/22 06:35:19;;;;;;;9.90;4.53;;;19.60;99.90;;;;;;5113288;28;20196;-72
2021/06/22 06:37:46;;;;;;;8.10;4.60;;;19.60;99.90;;;;;;5114295;27;20526;-72
2021/06/22 06:40:13;;;;;;;3.92;3.53;;;19.60;99.90;;;;;;5117616;27;20199;-72
2021/06/22 06:42:40;;;;;;;4.10;3.17;;;19.60;99.90;;;;;;5132554;27;20200;-72
2021/06/22 06:45:09;;;;;;;7.10;3.88;;;19.70;99.90;;;;;;5134082;27;20215;-72
2021/06/22 06:47:36;;;;;;;6.63;3.15;;;19.60;99.90;;;;;;5120338;27;20208;-72
2021/06/22 06:50:05;;;;;;;6.80;3.83;;;19.60;99.90;;;;;;5113590;28;20200;-72
2021/06/22 06:52:32;;;;;;;6.75;4.53;;;19.70;99.90;;;;;;5114807;27;20220;-72
2021/06/22 06:54:59;;;;;;;4.57;3.70;;;19.80;99.90;;;;;;5114276;28;20215;-72
2021/06/22 06:57:26;;;;;;;5.13;3.58;;;19.80;99.90;;;;;;5113162;28;20251;-72
2021/06/22 06:59:52;;;;;;;4.20;3.10;;;19.90;99.90;;;;;;5116991;27;20184;-72
2021/06/22 07:02:19;;;;;;;5.93;3.35;;;20.00;99.90;;;;;;5126298;27;20200;-72
2021/06/22 07:04:46;;;;;;;3.75;3.10;;;20.20;99.90;;;;;;5114851;27;20205;-72
2021/06/22 07:07:14;;;;;;;4.45;3.50;;;20.40;99.90;;;;;;5112616;27;20204;-71
2021/06/22 07:09:41;;;;;;;3.70;3.40;;;20.60;99.90;;;;;;5125523;27;20648;-71
2021/06/22 07:12:08;;;;;;;3.70;3.00;;;20.70;99.90;;;;;;5112234;27;20223;-71
2021/06/22 07:14:35;;;;;;;3.80;2.58;;;20.80;99.90;;;;;;5114707;27;20196;-72
2021/06/22 07:17:02;;;;;;;6.00;3.70;;;20.90;99.90;;;;;;5129831;27;20221;-72
2021/06/22 07:19:29;;;;;;;4.00;3.33;;;20.90;99.90;;;;;;5115742;27;20601;-72
2021/06/22 07:21:56;;;;;;;7.53;3.40;;;20.80;99.90;;;;;;5112307;28;20213;-72
2021/06/22 07:24:24;;;;;;;5.43;3.40;;;20.70;99.90;;;;;;5126422;27;20707;-72
2021/06/22 07:26:50;;;;;;;6.85;4.07;;;20.60;99.90;;;;;;5132684;27;20196;-71
2021/06/22 07:29:17;;;;;;;5.50;3.80;;;20.50;99.90;;;;;;5117045;27;20208;-71
2021/06/22 07:31:44;;;;;;;6.03;4.55;;;20.40;99.90;;;;;;5111759;28;20537;-71
2021/06/22 07:34:10;;;;;;;5.95;3.85;;;20.40;99.90;;;;;;5113876;27;20197;-71
2021/06/22 07:36:37;;;;;;;4.90;3.65;;;20.30;99.90;;;;;;5118448;27;20189;-71
2021/06/22 07:39:05;;;;;;;4.32;3.40;;;20.30;99.90;;;;;;5112753;27;20219;-71
2021/06/22 07:41:33;;;;;;;4.18;3.78;;;20.20;99.90;;;;;;5127279;27;20192;-71
2021/06/22 07:43:59;;;;;;;4.68;3.30;;;20.20;99.90;;;;;;5133372;27;20198;-72
2021/06/22 07:46:26;;;;;;;3.90;3.20;;;20.20;99.90;;;;;;5118985;27;20197;-71
2021/06/22 07:48:53;;;;;;;7.32;4.50;;;20.20;99.90;;;;;;5114097;27;20199;-71
2021/06/22 07:51:19;;;;;;;4.00;3.60;;;20.20;99.90;;;;;;5128725;27;20199;-71
2021/06/22 07:53:46;;;;;;;4.38;2.97;;;20.10;99.90;;;;;;5131898;27;20252;-71
2021/06/22 07:56:13;;;;;;;3.72;3.33;;;20.20;99.90;;;;;;5120712;27;20204;-71
2021/06/22 07:58:41;;;;;;;5.15;3.55;;;20.30;99.90;;;;;;5112283;28;20248;-71
2021/06/22 08:01:08;;;;;;;4.35;3.15;;;20.30;99.90;;;;;;5114014;27;20195;-71
2021/06/22 08:03:36;;;;;;;5.05;3.80;;;20.30;99.90;;;;;;5112851;28;20200;-71
2021/06/22 08:06:03;;;;;;;3.92;3.20;;;20.30;99.90;;;;;;5128750;27;20255;-71
2021/06/22 08:08:31;;;;;;;3.50;3.10;;;20.40;99.90;;;;;;5119749;27;20184;-71
2021/06/22 08:10:57;;;;;;;4.47;3.95;;;20.30;99.90;;;;;;5112878;27;20272;-71
2021/06/22 08:13:25;;;;;;;6.28;3.97;;;20.30;99.90;;;;;;5123369;27;20226;-71
2021/06/22 08:15:54;;;;;;;6.93;4.05;;;20.30;99.90;;;;;;5132013;27;20200;-71
2021/06/22 08:18:21;;;;;;;10.07;3.90;;;20.20;99.90;;;;;;5115480;27;20603;-71
2021/06/22 08:20:49;;;;;;;6.28;3.83;;;20.20;99.90;;;;;;5112645;28;20196;-71
2021/06/22 08:23:17;;;;;;;7.07;3.58;;;20.10;99.90;;;;;;5110737;28;20204;-71
2021/06/22 08:25:43;;;;;;;4.55;3.30;;;20.10;99.90;;;;;;5112131;28;20196;-71
2021/06/22 08:28:10;;;;;;;4.30;3.90;;;20.10;99.90;;;;;;5116495;28;20203;-72
2021/06/22 08:30:37;;;;;;;5.45;3.70;;;20.10;99.90;;;;;;5131629;28;20190;-72
2021/06/22 08:33:07;;;;;;;4.10;3.75;;;20.10;99.90;;;;;;5132208;28;20526;-72
2021/06/22 08:35:36;;;;;;;3.47;3.17;;;20.10;99.90;;;;;;5131654;28;20256;-72
2021/06/22 08:38:04;;;;;;;5.00;3.53;;;20.10;99.90;;;;;;5111402;28;20815;-72
2021/06/22 08:40:31;;;;;;;6.72;4.57;;;20.10;99.90;;;;;;5113677;28;20192;-72
2021/06/22 08:42:59;;;;;;;4.10;3.35;;;20.10;99.90;;;;;;5117942;28;20206;-72
2021/06/22 08:45:26;;;;;;;4.90;3.45;;;20.10;99.90;;;;;;5127195;28;20197;-72
2021/06/22 08:47:53;;;;;;;5.13;2.70;;;20.10;99.90;;;;;;5112741;28;20251;-72
2021/06/22 08:50:22;;;;;;;4.45;3.22;;;20.10;99.90;;;;;;5111841;28;20204;-72
2021/06/22 08:52:49;;;;;;;5.03;3.10;;;20.10;99.90;;;;;;5111424;28;20223;-72
2021/06/22 08:55:29;;;;;;;5.60;3.08;;;20.10;99.90;;;;;;5111865;28;20197;-72
2021/06/22 08:57:58;;;;;;;3.72;3.20;;;20.10;99.90;;;;;;5121443;28;20227;-72
2021/06/22 09:00:26;;;;;;;5.40;3.33;;;20.20;99.90;;;;;;5120012;28;20220;-72
2021/06/22 09:03:01;;;;;;;4.63;3.15;;;20.20;99.90;;;;;;5122584;28;20188;-72
2021/06/22 09:05:29;;;;;;;5.25;2.67;;;20.20;99.90;;;;;;5120581;28;20195;-72
2021/06/22 09:07:56;;;;;;;6.45;2.83;;;20.20;99.90;;;;;;5110840;28;20193;-72
2021/06/22 09:10:25;;;;;;;6.72;3.67;;;20.20;99.90;;;;;;5113290;28;20239;-72
2021/06/22 09:12:53;;;;;;;4.75;3.63;;;20.20;99.90;;;;;;5123768;28;20219;-72
2021/06/22 09:15:23;;;;;;;5.50;3.35;;;20.20;99.90;;;;;;5120115;28;20216;-72
2021/06/22 09:17:50;;;;;;;6.93;3.25;;;20.20;99.90;;;;;;5111668;28;20209;-72
2021/06/22 09:20:40;;;;;;;3.28;2.92;;;20.10;99.90;;;;;;5131383;28;20219;-72
2021/06/22 09:23:17;;;;;;;4.65;2.83;;;20.10;99.90;;;;;;5112348;28;20204;-72
2021/06/22 09:25:45;;;;;;;6.55;3.15;;;20.10;99.90;;;;;;5110736;28;20650;-72
2021/06/22 09:28:12;;;;;;;5.55;3.00;;;20.20;99.90;;;;;;5111801;28;20206;-73
2021/06/22 09:30:47;;;;;;;4.00;2.80;;;20.30;99.90;;;;;;5110570;28;20196;-72
2021/06/22 09:33:23;;;;;;;3.10;2.45;;;20.30;99.90;;;;;;5128272;28;20195;-72
2021/06/22 09:35:59;;;;;;;6.32;3.10;;;20.30;99.90;;;;;;5132924;27;20563;-73
2021/06/22 09:38:29;;;;;;;4.22;2.30;;;20.30;99.90;;;;;;5126592;27;20217;-72
2021/06/22 09:41:21;;;;;;;5.15;2.90;;;20.30;99.90;;;;;;5118320;27;20212;-72
2021/06/22 09:43:51;;;;;;;3.22;2.70;;;20.30;99.90;;;;;;5115157;27;20260;-72
2021/06/22 09:46:30;;;;;;;4.25;2.15;;;20.30;99.90;;;;;;5118352;27;20601;-72
2021/06/22 09:48:58;;;;;;;2.90;2.35;;;20.30;99.90;;;;;;5115413;28;20533;-72
2021/06/22 09:51:32;;;;;;;3.30;2.95;;;20.30;99.90;;;;;;5114997;27;20197;-72
2021/06/22 09:54:18;;;;;;;3.75;2.50;;;20.30;99.90;;;;;;5123845;27;20189;-72
2021/06/22 09:57:02;;;;;;;3.00;2.67;;;20.30;99.90;;;;;;5115033;27;20563;-72
2021/06/22 09:59:31;;;;;;;5.15;3.25;;;20.30;99.90;;;;;;5085196;28;20221;-72
2021/06/22 10:02:08;;;;;;;6.80;3.13;;;20.40;99.90;;;;;;5082538;28;20203;-73
2021/06/22 10:04:35;;;;;;;3.55;2.65;;;20.40;99.90;;;;;;5081501;28;20190;-72
2021/06/22 10:07:03;;;;;;;6.60;2.72;;;20.40;99.90;;;;;;5076880;28;20205;-72
2021/06/22 10:09:31;;;;;;;3.53;1.92;;;20.40;99.90;;;;;;5089963;28;20189;-72
2021/06/22 10:12:00;;;;;;;4.90;2.80;;;20.40;99.90;;;;;;5092910;28;20670;-72
2021/06/22 10:14:29;;;;;;;2.83;2.22;;;20.40;99.90;;;;;;5079442;28;20206;-71
2021/06/22 10:16:58;;;;;;;4.22;2.80;;;20.40;99.90;;;;;;5072470;28;20547;-72
2021/06/22 10:19:25;;;;;;;7.10;2.85;;;20.40;99.90;;;;;;5072149;28;20244;-72
2021/06/22 10:21:53;;;;;;;3.03;2.72;;;20.40;99.90;;;;;;5072027;28;20263;-71
2021/06/22 10:24:22;;;;;;;3.08;2.65;;;20.50;99.90;;;;;;5080526;28;20205;-71
2021/06/22 10:26:50;;;;;;;3.80;2.28;;;20.50;99.90;;;;;;5083900;28;20186;-71
2021/06/22 10:29:19;;;;;;;4.90;2.72;;;20.50;99.90;;;;;;5083929;28;20205;-71
2021/06/22 10:31:47;;;;;;;6.78;2.17;;;20.60;99.90;;;;;;5076381;28;20488;-76
2021/06/22 10:34:14;;;;;;;5.72;2.33;;;20.60;99.90;;;;;;5088414;28;20200;-72
2021/06/22 10:36:48;;;;;;;3.97;2.65;;;20.60;99.90;;;;;;5075875;28;20201;-72
2021/06/22 10:39:18;;;;;;;3.90;2.53;;;20.70;99.90;;;;;;5073112;28;20724;-72
2021/06/22 10:41:47;;;;;;;3.05;2.75;;;20.80;99.90;;;;;;5084411;28;20217;-72
2021/06/22 10:44:56;;;;;;;3.30;2.47;;;20.80;99.90;;;;;;5073245;28;20198;-73
2021/06/22 10:47:31;;;;;;;2.92;2.63;;;20.80;99.90;;;;;;5059247;28;20201;-73
2021/06/22 10:50:07;;;;;;;4.55;3.08;;;20.80;99.90;;;;;;5078087;28;20206;-70
2021/06/22 10:52:56;;;;;;;2.42;2.22;;;20.90;99.90;;;;;;5083359;28;20543;-74
2021/06/22 10:56:04;;;;;;;4.07;2.20;;;20.80;99.90;;;;;;5068869;28;20627;-69
2021/06/22 10:58:32;;;;;;;6.68;2.92;;;20.80;99.90;;;;;;5101558;28;20232;-70
2021/06/22 11:01:10;;;;;;;2.85;2.42;;;20.90;99.90;;;;;;5114108;28;20262;-69
2021/06/22 11:03:36;;;;;;;3.78;2.30;;;20.90;99.90;;;;;;5117308;27;20275;-73
2021/06/22 11:06:23;;;;;;;4.05;2.95;;;20.90;99.90;;;;;;5114398;27;20199;-69
2021/06/22 11:08:49;;;;;;;2.75;2.13;;;20.90;99.90;;;;;;5115479;27;20191;-69
2021/06/22 11:11:19;;;;;;;4.47;2.05;;;20.90;99.90;;;;;;5123568;27;20203;-69
2021/06/22 11:13:51;;;;;;;6.93;2.05;;;20.90;99.90;;;;;;5113742;27;20215;-69
2021/06/22 11:16:32;;;;;;;2.50;2.10;;;21.00;99.90;;;;;;5126132;27;20561;-69
2021/06/22 11:19:07;;;;;;;2.85;1.92;;;20.90;99.90;;;;;;5122429;27;20223;-69
2021/06/22 11:21:36;;;;;;;2.78;2.28;;;20.90;99.90;;;;;;5132727;27;20731;-69
2021/06/22 11:24:07;;;;;;;2.83;2.30;;;21.00;99.90;;;;;;5132524;27;20200;-70
2021/06/22 11:27:00;;;;;;;3.67;1.75;;;21.00;99.90;;;;;;5133410;27;20210;-69
2021/06/22 11:29:51;;;;;;;3.53;2.40;;;21.00;99.90;;;;;;5120558;27;20275;-69
2021/06/22 11:32:36;;;;;;;3.83;2.20;;;21.00;99.90;;;;;;5119539;27;20192;-69
2021/06/22 11:35:11;;;;;;;5.00;2.08;;;21.00;99.90;;;;;;5113971;27;20645;-69
2021/06/22 11:37:38;;;;;;;4.15;1.73;;;21.10;99.90;;;;;;5124666;27;20203;-69
2021/06/22 11:40:14;;;;;;;3.67;2.25;;;21.10;99.90;;;;;;5119307;27;20203;-69
2021/06/22 11:42:43;;;;;;;2.95;2.40;;;21.10;99.90;;;;;;5121445;27;20200;-69
2021/06/22 11:45:24;;;;;;;5.68;2.45;;;21.10;99.90;;;;;;5124297;27;20200;-69
2021/06/22 11:48:01;;;;;;;1.98;1.75;;;21.00;99.90;;;;;;5128763;27;20332;-69
2021/06/22 11:50:36;;;;;;;3.90;2.20;;;21.00;99.90;;;;;;5131771;27;20196;-69
2021/06/22 11:53:14;;;;;;;4.45;2.60;;;21.10;99.90;;;;;;5112290;28;20535;-69
2021/06/22 11:55:54;;;;;;;3.65;2.17;;;21.10;99.90;;;;;;5113041;28;20666;-69
2021/06/22 11:58:24;;;;;;;3.67;2.30;;;21.10;99.90;;;;;;5125553;27;20290;-69
2021/06/22 12:00:53;;;;;;;4.18;2.45;;;21.10;99.90;;;;;;5113036;28;20204;-69
2021/06/22 12:03:21;;;;;;;4.63;2.42;;;21.10;99.90;;;;;;5123139;27;20541;-69
2021/06/22 12:05:48;;;;;;;3.70;2.00;;;21.20;99.90;;;;;;5114724;27;20253;-69
2021/06/22 12:08:24;;;;;;;2.78;2.20;;;21.20;99.90;;;;;;5112511;27;20661;-69
2021/06/22 12:10:54;;;;;;;4.22;2.25;;;21.20;99.90;;;;;;5128836;27;20203;-70
2021/06/22 12:13:35;;;;;;;2.10;1.40;;;21.20;99.90;;;;;;5129377;27;20192;-69
2021/06/22 12:16:22;;;;;;;2.10;1.90;;;21.20;99.90;;;;;;5131819;27;20235;-69
2021/06/22 12:18:50;;;;;;;4.35;1.90;;;21.20;99.90;;;;;;5114799;27;20678;-69
2021/06/22 12:21:17;;;;;;;2.85;1.83;;;21.20;99.90;;;;;;5117015;27;20199;-69
2021/06/22 12:23:44;;;;;;;3.45;2.15;;;21.20;99.90;;;;;;5112978;28;20200;-69
2021/06/22 12:26:12;;;;;;;2.67;1.98;;;21.30;99.90;;;;;;5113766;28;20189;-69
2021/06/22 12:28:39;;;;;;;3.08;2.10;;;21.30;99.90;;;;;;5121872;28;20264;-70
2021/06/22 12:31:06;;;;;;;2.35;1.92;;;21.30;99.90;;;;;;5127172;28;20206;-69
2021/06/22 12:33:39;;;;;;;2.58;1.92;;;21.40;99.90;;;;;;5111697;28;20188;-69
2021/06/22 12:36:08;;;;;;;8.35;2.15;;;21.40;99.90;;;;;;5111668;28;20200;-69
2021/06/22 12:38:38;;;;;;;2.67;1.77;;;21.40;99.90;;;;;;5111018;28;20201;-69
2021/06/22 12:41:07;;;;;;;7.65;2.00;;;21.50;99.90;;;;;;5114369;28;20196;-69
2021/06/22 12:43:46;;;;;;;2.97;2.22;;;21.50;99.90;;;;;;5111982;28;20276;-69
2021/06/22 12:46:14;;;;;;;3.38;1.70;;;21.50;99.90;;;;;;5112299;28;20193;-69
2021/06/22 12:48:43;;;;;;;5.00;1.85;;;21.50;99.90;;;;;;5113337;28;20537;-69
2021/06/22 12:51:11;;;;;;;1.65;1.55;;;21.50;99.90;;;;;;5111772;28;20488;-69
2021/06/22 12:53:38;;;;;;;3.15;2.22;;;21.50;99.90;;;;;;5111626;28;20212;-68
2021/06/22 12:56:10;;;;;;;2.58;1.98;;;21.50;99.90;;;;;;5111607;28;20208;-69
2021/06/22 12:58:51;;;;;;;1.65;1.25;;;21.50;99.90;;;;;;5117376;28;20314;-69